Time,TemperatureF,DewpointF,PressureIn,WindDirection,WindDirectionDegrees,WindSpeedMPH,WindSpeedGustMPH,Humidity,HourlyPrecipIn,Conditions,Clouds,dailyrainin,SoftwareType,DateUTC
2013-02-10 00:04:00,15.1,12.1,29.86,SE,135,2.0,2.2,88,0.00,,,0.00,WUHU21623XXSP,2013-02-10 06:04:00,
2013-02-10 00:09:00,15.1,12.1,29.86,SE,135,1.3,2.5,88,0.00,,,0.00,WUHU21623XXSP,2013-02-10 06:09:00,
2013-02-10 00:14:00,15.1,12.1,29.86,SE,135,1.3,2.5,88,0.00,,,0.00,WUHU21623XXSP,2013-02-10 06:14:00,
2013-02-10 00:19:00,15.3,12.3,29.86,SE,135,0.0,1.8,88,0.00,,,0.00,WUHU21623XXSP,2013-02-10 06:19:00,
2013-02-10 00:21:00,15.4,12.3,29.86,SE,135,0.0,1.6,88,0.00,,,0.00,WUHU21623XXSP,2013-02-10 06:21:00,
2013-02-10 00:31:00,15.6,12.6,29.86,SE,135,0.0,0.0,88,0.00,,,0.00,WUHU21623XXSP,2013-02-10 06:31:00,
2013-02-10 01:31:00,16.0,13.0,29.85,SE,135,0.0,0.0,88,0.00,,,0.00,WUHU21623XXSP,2013-02-10 07:31:00,
2013-02-10 02:31:00,17.8,14.8,29.83,SE,135,0.0,0.0,88,0.00,,,0.00,WUHU21623XXSP,2013-02-10 08:31:00,
2013-02-10 03:31:00,20.1,17.3,29.80,ESE,113,0.0,0.0,89,0.00,,,0.00,WUHU21623XXSP,2013-02-10 09:31:00,
2013-02-10 04:31:00,21.0,18.2,29.79,SE,135,0.0,0.0,89,0.00,,,0.00,WUHU21623XXSP,2013-02-10 10:31:00,
2013-02-10 05:31:00,24.6,22.0,29.78,SE,135,0.0,0.0,90,0.00,,,0.00,WUHU21623XXSP,2013-02-10 11:31:00,
2013-02-10 06:31:00,27.7,25.1,29.75,ESE,113,1.3,1.3,90,0.00,,,0.00,WUHU21623XXSP,2013-02-10 12:31:00,
2013-02-10 07:31:00,29.7,27.4,29.71,ESE,112,2.2,2.2,91,0.00,,,0.00,WUHU21623XXSP,2013-02-10 13:31:00,
2013-02-10 07:36:00,29.8,27.6,29.70,SE,135,4.3,4.3,91,0.00,,,0.00,WUHU21623XXSP,2013-02-10 13:36:00,
2013-02-10 07:41:00,30.4,28.1,29.70,NW,315,0.0,4.3,91,0.00,,,0.00,WUHU21623XXSP,2013-02-10 13:41:00,
2013-02-10 07:46:00,30.6,28.3,29.70,ESE,112,0.0,0.0,91,0.00,,,0.00,WUHU21623XXSP,2013-02-10 13:46:00,
2013-02-10 07:51:00,30.7,28.5,29.69,SE,135,0.0,0.0,91,0.00,,,0.00,WUHU21623XXSP,2013-02-10 13:51:00,
2013-02-10 07:56:00,31.3,29.0,29.69,East,90,3.1,3.1,91,0.00,,,0.00,WUHU21623XXSP,2013-02-10 13:56:00,
2013-02-10 08:01:00,31.6,29.4,29.69,ESE,112,5.8,5.8,91,0.00,,,0.00,WUHU21623XXSP,2013-02-10 14:01:00,
2013-02-10 08:06:00,32.0,29.6,29.69,ESE,112,3.1,5.8,91,0.00,,,0.00,WUHU21623XXSP,2013-02-10 14:06:00,
2013-02-10 08:11:00,32.4,29.9,29.68,SE,135,2.2,3.8,91,0.00,,,0.00,WUHU21623XXSP,2013-02-10 14:11:00,
2013-02-10 08:16:00,34.0,31.6,29.68,SE,135,5.1,6.0,91,0.00,,,0.00,WUHU21623XXSP,2013-02-10 14:16:00,
2013-02-10 08:21:00,38.5,34.9,29.67,SE,135,4.9,6.0,87,0.00,,,0.00,WUHU21623XXSP,2013-02-10 14:21:00,
2013-02-10 08:26:00,38.1,33.7,29.67,SE,135,4.7,4.9,84,0.00,,,0.00,WUHU21623XXSP,2013-02-10 14:26:00,
2013-02-10 08:31:00,36.5,33.1,29.68,SE,135,8.1,8.1,85,0.00,,,0.00,WUHU21623XXSP,2013-02-10 14:31:00,
2013-02-10 08:36:00,35.2,31.6,29.69,SE,135,4.3,9.2,86,0.00,,,0.00,WUHU21623XXSP,2013-02-10 14:36:00,
2013-02-10 08:41:00,34.7,30.8,29.70,SE,135,5.1,9.2,86,0.00,,,0.00,WUHU21623XXSP,2013-02-10 14:41:00,
2013-02-10 08:46:00,34.3,30.5,29.69,SE,135,6.9,6.9,86,0.00,,,0.00,WUHU21623XXSP,2013-02-10 14:46:00,
2013-02-10 08:51:00,34.3,30.8,29.68,SSE,157,3.4,6.9,87,0.00,,,0.00,WUHU21623XXSP,2013-02-10 14:51:00,
2013-02-10 08:56:00,34.2,30.6,29.68,ESE,112,5.4,6.9,87,0.00,,,0.00,WUHU21623XXSP,2013-02-10 14:56:00,
2013-02-10 09:01:00,34.2,30.6,29.69,SE,135,5.1,5.4,87,0.00,,,0.00,WUHU21623XXSP,2013-02-10 15:01:00,
2013-02-10 09:06:00,34.3,30.8,29.68,SE,135,5.1,8.5,87,0.00,,,0.00,WUHU21623XXSP,2013-02-10 15:06:00,
2013-02-10 09:11:00,34.5,31.0,29.68,SE,135,5.4,8.5,87,0.00,,,0.00,WUHU21623XXSP,2013-02-10 15:11:00,
2013-02-10 09:16:00,34.5,31.2,29.67,SSE,157,4.0,9.2,88,0.00,,,0.00,WUHU21623XXSP,2013-02-10 15:16:00,
2013-02-10 09:22:00,34.7,31.2,29.66,SE,135,5.1,9.2,88,0.00,,,0.00,WUHU21623XXSP,2013-02-10 15:22:00,
2013-02-10 09:27:00,34.9,31.6,29.66,SE,135,2.2,6.5,88,0.00,,,0.00,WUHU21623XXSP,2013-02-10 15:27:00,
2013-02-10 09:32:00,34.9,31.6,29.65,ESE,112,4.9,6.5,88,0.00,,,0.00,WUHU21623XXSP,2013-02-10 15:32:00,
2013-02-10 09:37:00,35.2,32.0,29.64,SE,135,4.7,8.7,88,0.00,,,0.00,WUHU21623XXSP,2013-02-10 15:37:00,
2013-02-10 09:42:00,35.2,32.0,29.64,SE,135,5.4,8.7,88,0.00,,,0.00,WUHU21623XXSP,2013-02-10 15:42:00,
2013-02-10 09:47:00,35.4,32.1,29.64,SE,135,4.7,5.4,88,0.00,,,0.00,WUHU21623XXSP,2013-02-10 15:47:00,
2013-02-10 09:52:00,35.4,32.1,29.64,ESE,112,8.7,8.7,88,0.00,,,0.00,WUHU21623XXSP,2013-02-10 15:52:00,
2013-02-10 09:57:00,35.4,32.1,29.64,SSE,157,7.6,8.7,88,0.00,,,0.00,WUHU21623XXSP,2013-02-10 15:57:00,
2013-02-10 10:02:00,35.4,32.1,29.64,SE,135,6.9,7.6,88,0.00,,,0.00,WUHU21623XXSP,2013-02-10 16:02:00,
2013-02-10 10:07:00,35.2,32.0,29.63,SE,135,8.1,8.1,88,0.00,,,0.00,WUHU21623XXSP,2013-02-10 16:07:00,
2013-02-10 10:12:00,35.2,32.0,29.63,SE,135,8.9,9.6,88,0.00,,,0.00,WUHU21623XXSP,2013-02-10 16:12:00,
2013-02-10 10:17:00,35.2,32.0,29.63,ESE,112,7.6,9.6,88,0.00,,,0.00,WUHU21623XXSP,2013-02-10 16:17:00,
2013-02-10 10:22:00,35.2,32.0,29.62,SE,135,8.3,8.3,88,0.00,,,0.00,WUHU21623XXSP,2013-02-10 16:22:00,
2013-02-10 10:27:00,35.2,32.0,29.62,SE,135,13.4,13.4,88,0.00,,,0.00,WUHU21623XXSP,2013-02-10 16:27:00,
2013-02-10 10:32:00,35.2,32.0,29.62,SE,135,17.2,17.2,88,0.00,,,0.00,WUHU21623XXSP,2013-02-10 16:32:00,
2013-02-10 10:37:00,35.2,32.3,29.62,SE,135,6.7,17.2,89,0.00,,,0.00,WUHU21623XXSP,2013-02-10 16:37:00,
2013-02-10 10:42:00,35.2,32.3,29.61,SE,135,6.7,6.9,89,0.00,,,0.00,WUHU21623XXSP,2013-02-10 16:42:00,
2013-02-10 10:47:00,35.2,32.3,29.61,SE,135,7.4,7.6,89,0.00,,,0.00,WUHU21623XXSP,2013-02-10 16:47:00,
2013-02-10 10:52:00,35.2,32.3,29.60,SE,135,2.5,8.3,89,0.02,,,0.02,WUHU21623XXSP,2013-02-10 16:52:00,
2013-02-10 10:57:00,35.2,32.1,29.60,SSE,157,4.3,8.3,89,0.02,,,0.02,WUHU21623XXSP,2013-02-10 16:57:00,
2013-02-10 11:02:00,35.2,32.5,29.60,SE,135,6.9,10.3,90,0.02,,,0.02,WUHU21623XXSP,2013-02-10 17:02:00,
2013-02-10 11:07:00,35.2,32.5,29.59,ESE,112,8.9,10.7,90,0.02,,,0.02,WUHU21623XXSP,2013-02-10 17:07:00,
2013-02-10 11:12:00,35.2,32.5,29.59,SE,135,9.8,10.7,90,0.02,,,0.02,WUHU21623XXSP,2013-02-10 17:12:00,
2013-02-10 11:17:00,35.2,32.5,29.58,SE,135,4.7,9.8,90,0.02,,,0.02,WUHU21623XXSP,2013-02-10 17:17:00,
2013-02-10 11:22:00,35.2,32.5,29.58,SE,135,8.5,10.5,90,0.02,,,0.02,WUHU21623XXSP,2013-02-10 17:22:00,
2013-02-10 11:27:00,35.2,32.5,29.57,SE,135,5.1,10.5,90,0.02,,,0.02,WUHU21623XXSP,2013-02-10 17:27:00,
2013-02-10 11:32:00,35.2,32.5,29.57,ESE,112,4.3,8.3,90,0.02,,,0.02,WUHU21623XXSP,2013-02-10 17:32:00,
2013-02-10 11:37:00,35.2,32.5,29.56,SE,135,11.2,11.2,90,0.02,,,0.02,WUHU21623XXSP,2013-02-10 17:37:00,
2013-02-10 11:42:00,35.2,32.5,29.55,SE,135,6.0,11.2,90,0.02,,,0.02,WUHU21623XXSP,2013-02-10 17:42:00,
2013-02-10 11:47:00,35.2,32.5,29.54,SE,135,9.4,10.5,90,0.00,,,0.02,WUHU21623XXSP,2013-02-10 17:47:00,
2013-02-10 11:52:00,35.2,32.5,29.53,SE,135,6.5,11.0,90,0.00,,,0.02,WUHU21623XXSP,2013-02-10 17:52:00,
2013-02-10 11:55:00,35.2,32.5,29.53,ESE,112,5.6,11.0,90,0.00,,,0.02,WUHU21623XXSP,2013-02-10 17:55:00,
2013-02-10 11:57:00,35.2,32.5,29.53,ESE,112,5.6,11.0,90,0.00,,,0.02,WUHU21623XXSP,2013-02-10 17:57:00,
2013-02-10 12:20:00,35.2,32.8,29.50,ESE,112,0.0,0.0,91,0.00,,,0.02,WUHU21623XXSP,2013-02-10 18:20:00,
2013-02-10 12:25:00,35.2,32.8,29.49,SE,135,7.4,9.6,91,0.02,,,0.04,WUHU21623XXSP,2013-02-10 18:25:00,
2013-02-10 12:30:00,35.2,32.8,29.48,SE,135,11.9,13.6,91,0.02,,,0.04,WUHU21623XXSP,2013-02-10 18:30:00,
2013-02-10 12:35:00,34.9,32.5,29.48,SE,135,8.1,13.6,91,0.04,,,0.06,WUHU21623XXSP,2013-02-10 18:35:00,
2013-02-10 12:40:00,35.2,32.8,29.48,SE,135,5.1,10.5,91,0.06,,,0.06,WUHU21623XXSP,2013-02-10 18:40:00,
2013-02-10 12:45:00,34.9,32.5,29.48,SE,135,9.4,10.5,91,0.06,,,0.08,WUHU21623XXSP,2013-02-10 18:45:00,
2013-02-10 12:50:00,34.9,32.7,29.47,SE,135,10.3,10.3,92,0.08,,,0.10,WUHU21623XXSP,2013-02-10 18:50:00,
2013-02-10 12:55:00,34.9,32.7,29.46,SSE,157,8.3,10.3,92,0.08,,,0.10,WUHU21623XXSP,2013-02-10 18:55:00,
2013-02-10 13:00:00,35.2,33.1,29.46,East,90,5.4,11.2,92,0.10,,,0.12,WUHU21623XXSP,2013-02-10 19:00:00,
2013-02-10 13:05:00,35.2,33.1,29.46,SE,135,4.3,11.2,92,0.10,,,0.12,WUHU21623XXSP,2013-02-10 19:05:00,
2013-02-10 13:10:00,35.2,33.1,29.45,East,90,4.0,8.1,92,0.10,,,0.12,WUHU21623XXSP,2013-02-10 19:10:00,
2013-02-10 13:15:00,35.4,33.3,29.44,East,90,9.6,9.6,92,0.12,,,0.14,WUHU21623XXSP,2013-02-10 19:15:00,
2013-02-10 13:20:00,35.4,33.3,29.44,SE,135,7.2,9.6,92,0.12,,,0.14,WUHU21623XXSP,2013-02-10 19:20:00,
2013-02-10 13:25:00,35.8,33.6,29.43,SE,135,10.7,10.7,92,0.10,,,0.14,WUHU21623XXSP,2013-02-10 19:25:00,
2013-02-10 13:30:00,36.0,33.8,29.43,SE,135,10.7,12.1,92,0.10,,,0.14,WUHU21623XXSP,2013-02-10 19:30:00,
2013-02-10 13:35:00,36.1,34.0,29.42,SE,135,12.5,12.5,92,0.10,,,0.16,WUHU21623XXSP,2013-02-10 19:35:00,
2013-02-10 13:40:00,36.3,34.2,29.41,SE,135,12.8,13.2,92,0.08,,,0.16,WUHU21623XXSP,2013-02-10 19:40:00,
2013-02-10 13:45:00,36.3,34.2,29.41,SE,135,19.7,19.7,92,0.06,,,0.16,WUHU21623XXSP,2013-02-10 19:45:00,
2013-02-10 13:50:00,36.3,34.2,29.41,East,90,10.3,19.7,92,0.06,,,0.16,WUHU21623XXSP,2013-02-10 19:50:00,
2013-02-10 13:55:00,36.5,34.3,29.40,SE,135,17.0,17.0,92,0.06,,,0.16,WUHU21623XXSP,2013-02-10 19:55:00,
2013-02-10 14:00:00,36.7,34.5,29.39,SE,135,10.3,17.9,92,0.06,,,0.18,WUHU21623XXSP,2013-02-10 20:00:00,
2013-02-10 14:05:00,37.0,35.1,29.38,ENE,67,10.3,17.9,93,0.06,,,0.18,WUHU21623XXSP,2013-02-10 20:05:00,
2013-02-10 14:10:00,37.2,35.3,29.39,SE,135,11.9,11.9,93,0.06,,,0.18,WUHU21623XXSP,2013-02-10 20:10:00,
2013-02-10 14:15:00,37.2,35.3,29.38,SE,135,12.1,12.1,93,0.06,,,0.18,WUHU21623XXSP,2013-02-10 20:15:00,
2013-02-10 14:20:00,37.2,35.3,29.38,ENE,67,6.3,12.1,93,0.06,,,0.20,WUHU21623XXSP,2013-02-10 20:20:00,
2013-02-10 14:25:00,37.2,35.3,29.37,SE,135,8.3,12.1,93,0.06,,,0.20,WUHU21623XXSP,2013-02-10 20:25:00,
2013-02-10 14:30:00,37.2,35.3,29.36,ESE,112,10.1,12.1,92,0.04,,,0.20,WUHU21623XXSP,2013-02-10 20:30:00,
2013-02-10 14:35:00,37.2,35.3,29.35,SE,135,15.0,15.0,93,0.04,,,0.20,WUHU21623XXSP,2013-02-10 20:35:00,
2013-02-10 14:40:00,37.2,35.1,29.35,ESE,112,7.8,15.0,92,0.04,,,0.20,WUHU21623XXSP,2013-02-10 20:40:00,
2013-02-10 14:45:00,37.2,35.1,29.35,SSE,157,17.4,17.4,92,0.04,,,0.20,WUHU21623XXSP,2013-02-10 20:45:00,
2013-02-10 14:50:00,37.2,35.1,29.34,ESE,112,16.8,17.4,92,0.06,,,0.22,WUHU21623XXSP,2013-02-10 20:50:00,
2013-02-10 14:55:00,37.4,35.2,29.33,East,90,7.6,16.8,92,0.04,,,0.22,WUHU21623XXSP,2013-02-10 20:55:00,
2013-02-10 15:00:00,37.4,35.2,29.34,SE,135,7.2,13.0,92,0.04,,,0.22,WUHU21623XXSP,2013-02-10 21:00:00,
2013-02-10 15:05:00,37.4,35.1,29.33,SE,135,8.3,13.0,92,0.04,,,0.22,WUHU21623XXSP,2013-02-10 21:05:00,
2013-02-10 15:10:00,37.2,35.1,29.34,SE,135,6.9,8.3,92,0.04,,,0.22,WUHU21623XXSP,2013-02-10 21:10:00,
2013-02-10 15:15:00,37.2,35.1,29.34,SE,135,8.3,8.3,92,0.02,,,0.22,WUHU21623XXSP,2013-02-10 21:15:00,
2013-02-10 15:20:00,37.2,35.3,29.34,ESE,112,11.4,11.4,93,0.02,,,0.22,WUHU21623XXSP,2013-02-10 21:20:00,
2013-02-10 15:25:00,37.2,35.3,29.33,ESE,112,15.2,15.2,93,0.04,,,0.24,WUHU21623XXSP,2013-02-10 21:25:00,
2013-02-10 15:30:00,37.2,35.3,29.33,SE,135,11.6,15.2,92,0.04,,,0.24,WUHU21623XXSP,2013-02-10 21:30:00,
2013-02-10 15:35:00,37.4,35.5,29.32,SE,135,3.8,11.6,93,0.06,,,0.26,WUHU21623XXSP,2013-02-10 21:35:00,
2013-02-10 15:38:00,37.4,35.5,29.35,SE,135,4.7,11.6,93,0.08,,,0.26,WUHU21623XXSP,2013-02-10 21:38:00,
2013-02-10 16:31:00,37.4,35.5,29.32,SE,135,7.2,7.2,93,0.02,,,0.28,WUHU21623XXSP,2013-02-10 22:31:00,
2013-02-10 16:36:00,37.4,35.5,29.32,ESE,112,3.4,8.9,93,0.08,,,0.36,WUHU21623XXSP,2013-02-10 22:36:00,
2013-02-10 16:41:00,37.4,35.5,29.31,SE,135,4.0,8.9,93,0.08,,,0.36,WUHU21623XXSP,2013-02-10 22:41:00,
2013-02-10 16:46:00,37.4,35.5,29.31,SE,135,8.5,8.5,93,0.08,,,0.36,WUHU21623XXSP,2013-02-10 22:46:00,
2013-02-10 16:51:00,37.4,35.5,29.31,SE,135,8.1,10.1,93,0.10,,,0.38,WUHU21623XXSP,2013-02-10 22:51:00,
2013-02-10 16:56:00,37.4,35.5,29.30,SE,135,6.9,10.1,93,0.08,,,0.38,WUHU21623XXSP,2013-02-10 22:56:00,
2013-02-10 17:01:00,37.6,35.7,29.30,SE,135,10.5,10.5,93,0.08,,,0.38,WUHU21623XXSP,2013-02-10 23:01:00,
2013-02-10 17:06:00,37.6,35.7,29.30,ESE,112,5.6,10.5,93,0.08,,,0.38,WUHU21623XXSP,2013-02-10 23:06:00,
2013-02-10 17:12:00,37.6,35.7,29.30,SE,135,3.6,10.5,93,0.08,,,0.40,WUHU21623XXSP,2013-02-10 23:12:00,
2013-02-10 17:17:00,37.6,35.7,29.30,SE,135,5.6,8.1,93,0.08,,,0.40,WUHU21623XXSP,2013-02-10 23:17:00,
2013-02-10 17:22:00,37.4,35.5,29.30,SE,135,7.6,7.6,93,0.06,,,0.40,WUHU21623XXSP,2013-02-10 23:22:00,
2013-02-10 17:27:00,37.6,35.7,29.30,SE,135,5.4,7.6,93,0.06,,,0.40,WUHU21623XXSP,2013-02-10 23:27:00,
2013-02-10 17:32:00,37.6,35.7,29.30,SE,135,5.4,10.3,93,0.04,,,0.40,WUHU21623XXSP,2013-02-10 23:32:00,
2013-02-10 17:37:00,37.6,35.7,29.30,SE,135,4.0,10.3,93,0.04,,,0.40,WUHU21623XXSP,2013-02-10 23:37:00,
2013-02-10 17:42:00,37.6,35.7,29.30,ESE,112,6.7,8.3,93,0.04,,,0.40,WUHU21623XXSP,2013-02-10 23:42:00,
2013-02-10 17:47:00,37.6,35.7,29.29,SE,135,7.6,7.6,93,0.02,,,0.40,WUHU21623XXSP,2013-02-10 23:47:00,
2013-02-10 17:52:00,37.8,35.9,29.29,SE,135,4.7,8.3,93,0.02,,,0.40,WUHU21623XXSP,2013-02-10 23:52:00,
2013-02-10 17:57:00,37.8,35.9,29.29,SE,135,15.2,15.2,93,0.02,,,0.40,WUHU21623XXSP,2013-02-10 23:57:00,
2013-02-10 18:02:00,37.8,35.9,29.29,SE,135,6.5,15.2,93,0.02,,,0.40,WUHU21623XXSP,2013-02-11 00:02:00,
2013-02-10 18:07:00,37.9,36.0,29.29,ESE,112,10.5,10.5,93,0.00,,,0.40,WUHU21623XXSP,2013-02-11 00:07:00,
2013-02-10 18:12:00,37.9,36.0,29.29,SE,135,6.9,10.5,93,0.00,,,0.40,WUHU21623XXSP,2013-02-11 00:12:00,
2013-02-10 18:17:00,37.9,36.0,29.29,SE,135,6.0,7.2,93,0.00,,,0.40,WUHU21623XXSP,2013-02-11 00:17:00,
2013-02-10 18:22:00,37.9,36.0,29.28,SSE,157,4.7,6.9,93,0.00,,,0.40,WUHU21623XXSP,2013-02-11 00:22:00,
2013-02-10 18:27:00,37.9,36.0,29.28,SE,135,5.6,5.6,93,0.00,,,0.40,WUHU21623XXSP,2013-02-11 00:27:00,
2013-02-10 18:32:00,37.9,36.0,29.28,SE,135,7.6,7.6,93,0.00,,,0.40,WUHU21623XXSP,2013-02-11 00:32:00,
2013-02-10 18:37:00,37.9,36.0,29.28,SE,135,6.5,8.3,93,0.00,,,0.40,WUHU21623XXSP,2013-02-11 00:37:00,
2013-02-10 18:42:00,38.1,36.2,29.28,SE,135,5.1,9.8,93,0.00,,,0.40,WUHU21623XXSP,2013-02-11 00:42:00,
2013-02-10 18:47:00,38.5,36.6,29.28,SE,135,7.2,9.8,93,0.00,,,0.40,WUHU21623XXSP,2013-02-11 00:47:00,
2013-02-10 18:52:00,39.0,37.1,29.27,SE,135,8.3,14.8,93,0.00,,,0.40,WUHU21623XXSP,2013-02-11 00:52:00,
2013-02-10 18:57:00,39.6,37.7,29.27,ESE,112,5.4,14.8,93,0.00,,,0.40,WUHU21623XXSP,2013-02-11 00:57:00,
2013-02-10 19:02:00,39.9,38.0,29.27,SE,135,14.3,14.3,93,0.00,,,0.40,WUHU21623XXSP,2013-02-11 01:02:00,
2013-02-10 19:07:00,40.1,38.2,29.27,SE,135,11.6,14.3,93,0.00,,,0.40,WUHU21623XXSP,2013-02-11 01:07:00,
2013-02-10 19:12:00,40.3,38.4,29.27,South,180,9.8,11.6,93,0.00,,,0.40,WUHU21623XXSP,2013-02-11 01:12:00,
2013-02-10 19:17:00,40.5,38.6,29.27,South,180,9.2,10.7,93,0.00,,,0.40,WUHU21623XXSP,2013-02-11 01:17:00,
2013-02-10 19:22:00,40.8,38.9,29.26,South,180,5.8,13.6,93,0.00,,,0.40,WUHU21623XXSP,2013-02-11 01:22:00,
2013-02-10 19:27:00,40.8,38.9,29.26,ESE,112,6.5,13.6,93,0.00,,,0.40,WUHU21623XXSP,2013-02-11 01:27:00,
2013-02-10 19:32:00,40.8,38.9,29.26,East,90,3.1,13.4,93,0.00,,,0.40,WUHU21623XXSP,2013-02-11 01:32:00,
2013-02-10 19:37:00,40.8,38.9,29.25,SE,135,5.8,13.4,93,0.00,,,0.40,WUHU21623XXSP,2013-02-11 01:37:00,
2013-02-10 19:42:00,40.8,38.9,29.25,SE,135,8.9,8.9,93,0.00,,,0.40,WUHU21623XXSP,2013-02-11 01:42:00,
2013-02-10 19:47:00,40.8,38.9,29.25,SE,135,9.6,9.6,93,0.00,,,0.40,WUHU21623XXSP,2013-02-11 01:47:00,
2013-02-10 19:52:00,40.8,38.9,29.25,SSE,157,6.0,14.3,93,0.00,,,0.40,WUHU21623XXSP,2013-02-11 01:52:00,
2013-02-10 19:57:00,40.8,38.9,29.25,SE,135,4.9,14.3,93,0.00,,,0.40,WUHU21623XXSP,2013-02-11 01:57:00,
2013-02-10 20:02:00,40.8,38.9,29.25,East,90,2.2,11.6,93,0.00,,,0.40,WUHU21623XXSP,2013-02-11 02:02:00,
2013-02-10 20:07:00,41.0,39.1,29.24,SSE,157,9.2,9.2,93,0.00,,,0.40,WUHU21623XXSP,2013-02-11 02:07:00,
2013-02-10 20:12:00,41.0,39.1,29.24,ESE,112,7.4,9.2,93,0.00,,,0.40,WUHU21623XXSP,2013-02-11 02:12:00,
2013-02-10 20:17:00,41.2,39.1,29.24,SSE,157,4.9,7.4,93,0.00,,,0.40,WUHU21623XXSP,2013-02-11 02:17:00,
2013-02-10 20:22:00,41.2,39.3,29.24,SE,135,17.0,17.0,93,0.00,,,0.40,WUHU21623XXSP,2013-02-11 02:22:00,
2013-02-10 20:27:00,41.2,39.3,29.23,ESE,112,15.7,17.0,93,0.00,,,0.40,WUHU21623XXSP,2013-02-11 02:27:00,
2013-02-10 20:32:00,41.2,39.3,29.23,SE,135,11.0,15.7,93,0.00,,,0.40,WUHU21623XXSP,2013-02-11 02:32:00,
2013-02-10 20:37:00,41.2,39.3,29.23,SE,135,10.7,11.0,93,0.00,,,0.40,WUHU21623XXSP,2013-02-11 02:37:00,
2013-02-10 20:43:00,41.4,39.5,29.23,SE,135,5.4,10.7,93,0.00,,,0.40,WUHU21623XXSP,2013-02-11 02:43:00,
2013-02-10 20:48:00,41.4,39.5,29.23,SE,135,8.9,8.9,93,0.00,,,0.40,WUHU21623XXSP,2013-02-11 02:48:00,
2013-02-10 20:53:00,41.4,39.5,29.24,SE,135,9.6,9.6,93,0.00,,,0.40,WUHU21623XXSP,2013-02-11 02:53:00,
2013-02-10 20:58:00,41.5,39.6,29.23,SE,135,11.2,11.2,93,0.00,,,0.40,WUHU21623XXSP,2013-02-11 02:58:00,
2013-02-10 21:03:00,41.5,39.6,29.23,SSE,157,10.1,11.2,93,0.00,,,0.40,WUHU21623XXSP,2013-02-11 03:03:00,
2013-02-10 21:08:00,41.5,39.6,29.23,SSE,157,10.1,10.1,93,0.00,,,0.40,WUHU21623XXSP,2013-02-11 03:08:00,
2013-02-10 21:13:00,41.5,39.6,29.23,South,180,17.7,17.7,93,0.00,,,0.40,WUHU21623XXSP,2013-02-11 03:13:00,
2013-02-10 21:18:00,41.5,39.6,29.23,East,90,6.3,17.7,93,0.00,,,0.40,WUHU21623XXSP,2013-02-11 03:18:00,
2013-02-10 21:23:00,41.5,39.6,29.23,SE,135,6.5,17.7,93,0.00,,,0.40,WUHU21623XXSP,2013-02-11 03:23:00,
2013-02-10 21:28:00,41.5,39.6,29.23,SE,135,5.8,10.1,93,0.00,,,0.40,WUHU21623XXSP,2013-02-11 03:28:00,
2013-02-10 21:33:00,41.5,39.6,29.23,SSE,157,13.4,13.4,93,0.00,,,0.40,WUHU21623XXSP,2013-02-11 03:33:00,
2013-02-10 21:36:00,41.5,39.6,29.23,SE,135,4.3,13.4,93,0.00,,,0.40,WUHU21623XXSP,2013-02-11 03:36:00,
2013-02-10 21:54:00,41.2,39.3,29.22,SW,225,0.0,0.0,93,0.00,,,0.40,WUHU21623XXSP,2013-02-11 03:54:00,
2013-02-10 21:59:00,41.2,39.3,29.22,SE,135,2.9,5.8,93,0.00,,,0.40,WUHU21623XXSP,2013-02-11 03:59:00,
2013-02-10 22:04:00,41.4,39.5,29.22,SE,135,5.6,6.0,93,0.00,,,0.40,WUHU21623XXSP,2013-02-11 04:04:00,
2013-02-10 22:09:00,41.4,39.5,29.23,NNE,22,0.0,6.0,93,0.00,,,0.40,WUHU21623XXSP,2013-02-11 04:09:00,
2013-02-10 22:14:00,41.4,39.5,29.23,SE,135,4.9,10.1,93,0.00,,,0.40,WUHU21623XXSP,2013-02-11 04:14:00,
2013-02-10 22:19:00,41.4,39.5,29.22,SE,135,7.8,10.1,93,0.00,,,0.40,WUHU21623XXSP,2013-02-11 04:19:00,
2013-02-10 22:24:00,41.4,39.5,29.22,SE,135,9.4,9.4,93,0.00,,,0.40,WUHU21623XXSP,2013-02-11 04:24:00,
2013-02-10 22:29:00,41.2,39.3,29.22,SSW,202,2.5,9.4,93,0.00,,,0.40,WUHU21623XXSP,2013-02-11 04:29:00,
2013-02-10 22:34:00,40.8,38.9,29.22,South,180,7.8,7.8,93,0.00,,,0.40,WUHU21623XXSP,2013-02-11 04:34:00,
2013-02-10 22:40:00,40.8,38.9,29.22,ESE,112,3.4,10.3,93,0.00,,,0.40,WUHU21623XXSP,2013-02-11 04:40:00,
2013-02-10 22:45:00,40.6,38.8,29.22,SSW,202,2.5,10.3,93,0.00,,,0.40,WUHU21623XXSP,2013-02-11 04:45:00,
2013-02-10 22:50:00,40.3,38.4,29.21,SSW,202,2.5,8.9,93,0.00,,,0.40,WUHU21623XXSP,2013-02-11 04:50:00,
2013-02-10 22:55:00,40.1,38.2,29.21,East,90,3.6,5.1,93,0.00,,,0.40,WUHU21623XXSP,2013-02-11 04:55:00,
2013-02-10 23:00:00,39.9,38.0,29.21,ESE,112,9.6,9.6,93,0.00,,,0.40,WUHU21623XXSP,2013-02-11 05:00:00,
2013-02-10 23:05:00,39.9,38.0,29.21,SE,135,4.7,9.6,93,0.00,,,0.40,WUHU21623XXSP,2013-02-11 05:05:00,
2013-02-10 23:10:00,39.9,38.0,29.22,ESE,112,5.6,6.3,93,0.00,,,0.40,WUHU21623XXSP,2013-02-11 05:10:00,
2013-02-10 23:15:00,39.9,38.0,29.22,SSE,157,5.6,6.3,93,0.00,,,0.40,WUHU21623XXSP,2013-02-11 05:15:00,
2013-02-10 23:20:00,39.9,38.0,29.22,ESE,112,7.8,7.8,93,0.00,,,0.40,WUHU21623XXSP,2013-02-11 05:20:00,
2013-02-10 23:25:00,39.9,37.8,29.22,SE,135,0.0,7.8,92,0.00,,,0.40,WUHU21623XXSP,2013-02-11 05:25:00,
2013-02-10 23:30:00,39.9,37.8,29.22,West,270,7.2,7.2,92,0.00,,,0.40,WUHU21623XXSP,2013-02-11 05:30:00,
2013-02-10 23:35:00,39.7,37.6,29.22,ESE,112,3.8,7.2,92,0.00,,,0.40,WUHU21623XXSP,2013-02-11 05:35:00,
2013-02-10 23:40:00,39.6,37.4,29.22,WSW,247,0.0,4.7,92,0.00,,,0.40,WUHU21623XXSP,2013-02-11 05:40:00,
2013-02-10 23:45:00,39.4,37.2,29.22,SSE,157,2.5,4.7,92,0.00,,,0.40,WUHU21623XXSP,2013-02-11 05:45:00,
2013-02-10 23:50:00,39.4,37.0,29.22,SE,135,0.0,2.5,91,0.00,,,0.40,WUHU21623XXSP,2013-02-11 05:50:00,
2013-02-10 23:56:00,39.4,37.0,29.22,NW,315,2.9,2.9,91,0.00,,,0.40,WUHU21623XXSP,2013-02-11 05:56:00,